Time;durP1;ratioP1;P1;durP2;ratioP2;P2;SDS_P1;SDS_P2;PMS_P1;PMS_P2;Temp;Humidity;BMP_temperature;BMP_pressure;BME280_temperature;BME280_humidity;BME280_pressure;Samples;Min_cycle;Max_cycle;Signal;HPM_P1;HPM_P2
2023/07/24 00:00:07;;;;;;;14.63;7.93;;;;;;;22.67;67.03;94862.91;5091008;28;20255;-44
2023/07/24 00:02:34;;;;;;;17.90;8.18;;;;;;;22.81;66.94;94885.31;5090880;28;20198;-44
2023/07/24 00:05:00;;;;;;;12.70;7.93;;;;;;;22.78;66.97;94878.69;5090730;28;20201;-43
2023/07/24 00:07:28;;;;;;;10.43;7.72;;;;;;;22.77;66.86;94889.34;5090683;28;20201;-43
2023/07/24 00:09:56;;;;;;;11.98;7.28;;;;;;;22.76;66.71;94880.72;5090273;28;20250;-44
2023/07/24 00:12:23;;;;;;;12.15;7.35;;;;;;;22.74;66.55;94882.72;5090444;28;20201;-45
2023/07/24 00:14:50;;;;;;;12.85;8.30;;;;;;;22.72;66.63;94876.13;5089568;28;20190;-44
2023/07/24 00:17:16;;;;;;;10.40;7.85;;;;;;;22.66;66.46;94874.34;5090396;28;20221;-45
2023/07/24 00:19:43;;;;;;;11.52;7.78;;;;;;;22.66;66.56;94885.56;5090581;28;20186;-44
2023/07/24 00:22:10;;;;;;;12.00;8.05;;;;;;;22.66;66.38;94882.97;5090170;28;20185;-44
2023/07/24 00:24:38;;;;;;;9.30;7.63;;;;;;;22.51;66.35;94858.97;5090362;28;20204;-44
2023/07/24 00:27:05;;;;;;;18.05;9.18;;;;;;;22.63;66.08;94874.78;5089896;28;20189;-43
2023/07/24 00:29:32;;;;;;;11.45;7.70;;;;;;;22.62;65.12;94873.94;5089997;28;20225;-43
2023/07/24 00:31:59;;;;;;;11.55;8.05;;;;;;;22.57;64.96;94870.38;5090324;28;20177;-44
2023/07/24 00:34:26;;;;;;;12.88;8.02;;;;;;;22.51;65.14;94878.00;5090323;28;20190;-44
2023/07/24 00:36:52;;;;;;;9.65;7.95;;;;;;;22.47;65.42;94874.22;5089941;28;20210;-44
2023/07/24 00:39:19;;;;;;;10.65;8.48;;;;;;;22.37;65.16;94857.44;5090102;28;20676;-45
2023/07/24 00:41:47;;;;;;;11.65;8.23;;;;;;;22.45;65.36;94870.22;5089746;28;20217;-44
2023/07/24 00:44:14;;;;;;;17.00;8.73;;;;;;;22.44;65.27;94874.63;5090378;28;20953;-43
2023/07/24 00:46:41;;;;;;;11.20;8.50;;;;;;;22.44;65.10;94871.22;5090683;28;20197;-44
2023/07/24 00:49:09;;;;;;;14.10;8.85;;;;;;;22.44;64.83;94872.03;5089861;28;20682;-43
2023/07/24 00:51:36;;;;;;;11.98;8.27;;;;;;;22.27;64.19;94858.66;5089740;28;20278;-42
2023/07/24 00:54:04;;;;;;;11.77;8.40;;;;;;;22.36;64.30;94874.06;5089831;28;20250;-43
2023/07/24 00:56:32;;;;;;;11.77;8.38;;;;;;;22.34;64.04;94871.66;5089908;28;20291;-43
2023/07/24 00:59:01;;;;;;;14.48;8.80;;;;;;;22.31;64.22;94869.47;5089513;28;20193;-42
2023/07/24 01:01:29;;;;;;;16.17;8.23;;;;;;;22.32;63.81;94862.44;5089901;28;20652;-46
2023/07/24 01:03:58;;;;;;;13.77;8.55;;;;;;;22.29;63.37;94858.47;5089541;28;20186;-43
2023/07/24 01:06:25;;;;;;;12.70;9.13;;;;;;;22.25;63.72;94852.84;5089668;28;20193;-49
2023/07/24 01:08:51;;;;;;;12.40;8.45;;;;;;;22.23;63.46;94861.88;5089267;28;20629;-44
2023/07/24 01:11:21;;;;;;;12.25;8.73;;;;;;;22.22;63.14;94865.50;5089801;28;20190;-42
2023/07/24 01:13:56;;;;;;;11.05;8.45;;;;;;;22.18;62.84;94870.31;5089239;28;20190;-42
2023/07/24 01:16:31;;;;;;;12.02;8.88;;;;;;;22.14;62.85;94863.91;5089447;28;20205;-44
2023/07/24 01:19:00;;;;;;;12.57;9.55;;;;;;;22.02;62.76;94839.47;5089156;28;20200;-42
2023/07/24 01:21:34;;;;;;;13.25;9.65;;;;;;;22.09;62.84;94855.09;5089657;28;20193;-43
2023/07/24 01:24:15;;;;;;;13.15;8.75;;;;;;;22.04;63.02;94856.50;5088874;28;20243;-45
2023/07/24 01:26:45;;;;;;;13.02;9.85;;;;;;;21.99;63.57;94852.91;5089299;28;20189;-42
2023/07/24 01:29:11;;;;;;;11.40;8.93;;;;;;;21.95;64.38;94849.13;5088955;28;20221;-44
2023/07/24 01:31:38;;;;;;;11.73;8.20;;;;;;;21.83;63.92;94829.91;5089857;28;20190;-44
2023/07/24 01:34:05;;;;;;;12.93;9.35;;;;;;;21.92;64.23;94842.50;5089215;28;20194;-43
2023/07/24 01:36:32;;;;;;;15.18;9.07;;;;;;;21.89;64.33;94845.53;5088934;28;20769;-44
2023/07/24 01:39:00;;;;;;;13.07;8.93;;;;;;;21.89;64.16;94845.53;5088919;28;20236;-43
2023/07/24 01:41:27;;;;;;;15.18;9.32;;;;;;;21.88;64.20;94859.53;5089455;28;20308;-42
2023/07/24 01:43:56;;;;;;;14.57;9.40;;;;;;;21.87;64.05;94875.38;5088973;28;20567;-45
2023/07/24 01:46:22;;;;;;;12.55;8.95;;;;;;;21.84;63.83;94873.97;5089279;28;20735;-44
2023/07/24 01:48:49;;;;;;;14.05;9.27;;;;;;;21.84;62.11;94870.56;5090322;28;20615;-43
2023/07/24 01:51:16;;;;;;;13.27;9.75;;;;;;;21.77;61.43;94873.97;5089049;28;20182;-43
2023/07/24 01:53:43;;;;;;;16.85;9.93;;;;;;;21.72;61.89;94870.41;5088765;28;20662;-42
2023/07/24 01:56:10;;;;;;;20.50;9.90;;;;;;;21.61;62.28;94863.97;5089105;28;20585;-44
2023/07/24 01:58:36;;;;;;;16.80;9.95;;;;;;;21.62;62.39;94865.56;5088727;28;20185;-43
2023/07/24 02:01:04;;;;;;;14.70;10.10;;;;;;;21.60;62.40;94866.78;5089196;28;20189;-43
2023/07/24 02:03:31;;;;;;;16.88;10.68;;;;;;;21.61;62.67;94879.59;5089597;28;20193;-43
2023/07/24 02:05:58;;;;;;;16.70;10.32;;;;;;;21.59;62.74;94875.59;5088777;28;20186;-43
2023/07/24 02:08:25;;;;;;;14.73;9.48;;;;;;;21.54;62.88;94860.56;5089331;28;20216;-42
2023/07/24 02:10:52;;;;;;;13.30;9.45;;;;;;;21.56;62.95;94860.38;5088675;28;20199;-43
2023/07/24 02:13:18;;;;;;;14.32;9.60;;;;;;;21.60;62.76;94866.78;5088997;28;20186;-43
2023/07/24 02:15:45;;;;;;;16.92;10.57;;;;;;;21.62;62.82;94868.19;5089011;28;20178;-43
2023/07/24 02:18:13;;;;;;;18.77;11.30;;;;;;;21.63;62.12;94866.38;5089236;28;20224;-42
2023/07/24 02:20:40;;;;;;;16.05;11.45;;;;;;;21.62;61.89;94860.38;5088613;28;20190;-42
2023/07/24 02:23:08;;;;;;;20.45;10.20;;;;;;;21.57;62.09;94854.19;5088802;28;20178;-45
2023/07/24 02:25:36;;;;;;;14.30;9.65;;;;;;;21.55;62.26;94851.78;5088739;28;20656;-45
2023/07/24 02:28:03;;;;;;;16.45;10.80;;;;;;;21.55;62.22;94851.78;5088863;28;20277;-42
2023/07/24 02:30:30;;;;;;;14.55;10.05;;;;;;;21.56;62.10;94853.38;5088437;28;20225;-45
2023/07/24 02:32:57;;;;;;;17.30;11.02;;;;;;;21.53;62.37;94857.16;5089073;28;20242;-44
2023/07/24 02:35:25;;;;;;;17.45;10.48;;;;;;;21.52;62.61;94847.78;5088733;28;20267;-44
2023/07/24 02:37:52;;;;;;;15.55;11.07;;;;;;;21.52;62.48;94854.78;5091626;28;20218;-43
2023/07/24 02:40:19;;;;;;;16.02;11.60;;;;;;;21.56;62.15;94863.00;5092228;28;20557;-43
2023/07/24 02:42:45;;;;;;;14.50;10.65;;;;;;;21.55;61.58;94862.19;5092245;28;20200;-43
2023/07/24 02:45:12;;;;;;;19.10;11.48;;;;;;;21.44;61.61;94852.38;5092186;28;20190;-43
2023/07/24 02:47:39;;;;;;;15.65;11.20;;;;;;;21.37;61.55;94854.97;5091981;28;20680;-42
2023/07/24 02:50:06;;;;;;;18.33;11.13;;;;;;;21.34;61.73;94847.59;5091785;28;20250;-43
2023/07/24 02:52:34;;;;;;;17.38;12.32;;;;;;;21.33;61.73;94851.19;5091721;28;20197;-43
2023/07/24 02:55:01;;;;;;;19.63;11.00;;;;;;;21.33;61.93;94859.00;5092285;28;20189;-41
2023/07/24 02:57:28;;;;;;;16.20;10.98;;;;;;;21.34;62.15;94852.00;5091874;28;20225;-42
2023/07/24 02:59:55;;;;;;;16.25;10.60;;;;;;;21.35;62.23;94856.19;5092066;28;20193;-43
2023/07/24 03:02:21;;;;;;;17.73;11.40;;;;;;;21.37;62.45;94854.97;5091818;28;20201;-43
2023/07/24 03:04:48;;;;;;;19.88;11.27;;;;;;;21.36;62.94;94845.56;5091745;28;20189;-44
2023/07/24 03:07:15;;;;;;;16.08;11.80;;;;;;;21.35;63.30;94845.78;5091857;28;20270;-44
2023/07/24 03:09:43;;;;;;;20.10;11.40;;;;;;;21.34;63.44;94842.38;5091885;28;20202;-42
2023/07/24 03:12:11;;;;;;;17.02;11.27;;;;;;;21.35;63.23;94843.97;5092017;28;20189;-43
2023/07/24 03:14:37;;;;;;;17.17;11.75;;;;;;;21.33;63.63;94845.16;5091609;28;20189;-43
2023/07/24 03:17:04;;;;;;;19.05;11.52;;;;;;;21.31;63.67;94847.94;5091586;28;20220;-43
2023/07/24 03:19:31;;;;;;;18.30;10.73;;;;;;;20.92;63.37;94781.91;5091228;28;20198;-42
2023/07/24 03:21:58;;;;;;;18.50;11.68;;;;;;;21.31;62.87;94832.34;5091804;28;20251;-43
2023/07/24 03:24:25;;;;;;;18.70;12.30;;;;;;;21.35;62.84;94846.56;5091517;28;20211;-42
2023/07/24 03:26:53;;;;;;;18.30;11.55;;;;;;;21.32;62.93;94856.56;5091656;28;20189;-48
2023/07/24 03:29:19;;;;;;;18.15;11.48;;;;;;;21.26;63.50;94853.75;5091360;28;20279;-43
2023/07/24 03:31:46;;;;;;;19.00;11.43;;;;;;;21.20;64.26;94845.94;5091542;28;20193;-44
2023/07/24 03:34:13;;;;;;;16.70;11.10;;;;;;;21.29;64.39;94860.38;5091073;28;20631;-43
2023/07/24 03:36:41;;;;;;;15.60;9.98;;;;;;;21.29;64.95;94860.38;5091865;28;20201;-44
2023/07/24 03:39:08;;;;;;;17.55;10.52;;;;;;;21.28;65.82;94850.94;5091883;28;20203;-43
2023/07/24 03:41:34;;;;;;;13.23;9.10;;;;;;;21.29;67.78;94858.56;5091643;28;20243;-44
2023/07/24 03:44:03;;;;;;;11.88;8.50;;;;;;;21.32;69.40;94851.38;5091273;28;20201;-42
2023/07/24 03:46:29;;;;;;;16.33;8.65;;;;;;;21.11;70.46;94821.13;5091264;28;20186;-44
2023/07/24 03:48:56;;;;;;;15.18;9.40;;;;;;;21.29;71.06;94848.16;5089902;28;20193;-44
2023/07/24 03:51:23;;;;;;;13.10;7.82;;;;;;;21.33;71.49;94859.00;5091395;28;20554;-44
2023/07/24 03:53:49;;;;;;;11.50;8.40;;;;;;;21.39;72.84;94858.19;5091378;28;20201;-44
2023/07/24 03:56:16;;;;;;;12.02;8.00;;;;;;;21.37;73.95;94857.56;5091001;28;20186;-45
2023/07/24 03:58:43;;;;;;;11.25;8.13;;;;;;;21.18;74.71;94827.13;5091284;28;20271;-46
2023/07/24 04:01:12;;;;;;;10.55;7.72;;;;;;;21.28;75.51;94845.72;5091028;28;20197;-44
2023/07/24 04:03:39;;;;;;;11.02;8.10;;;;;;;21.21;75.90;94853.56;5090917;28;20192;-46
2023/07/24 04:06:05;;;;;;;11.43;8.48;;;;;;;21.09;76.26;94838.75;5091011;28;20209;-42
2023/07/24 04:08:32;;;;;;;17.70;8.00;;;;;;;21.22;76.23;94868.16;5091116;28;20182;-44
2023/07/24 04:10:59;;;;;;;9.93;7.55;;;;;;;21.26;76.47;94869.34;5090680;28;20197;-45
2023/07/24 04:13:26;;;;;;;7.80;6.63;;;;;;;21.27;76.18;94875.34;5090849;28;20181;-43
2023/07/24 04:15:52;;;;;;;11.50;8.50;;;;;;;21.38;75.78;94874.81;5090521;28;20186;-44
2023/07/24 04:18:21;;;;;;;12.70;8.20;;;;;;;21.42;75.85;94878.63;5090548;28;20217;-46
2023/07/24 04:20:48;;;;;;;10.98;8.38;;;;;;;21.39;76.20;94866.00;5090812;28;20189;-43
2023/07/24 04:23:15;;;;;;;10.43;7.78;;;;;;;21.53;75.71;94877.19;5090996;28;20186;-43
2023/07/24 04:25:41;;;;;;;10.20;8.43;;;;;;;21.53;76.00;94879.81;5091007;28;20213;-43
2023/07/24 04:28:08;;;;;;;11.35;8.57;;;;;;;21.58;75.74;94879.19;5090246;28;20193;-43
2023/07/24 04:30:35;;;;;;;11.97;7.43;;;;;;;21.66;75.34;94882.38;5090452;28;20221;-43
2023/07/24 04:33:02;;;;;;;10.38;7.80;;;;;;;21.78;74.83;94875.56;5090580;28;20591;-43
2023/07/24 04:35:30;;;;;;;10.50;8.15;;;;;;;21.90;74.38;94872.38;5090721;28;20198;-42
2023/07/24 04:37:57;;;;;;;10.32;7.43;;;;;;;21.97;74.25;94873.94;5089994;28;20730;-44
2023/07/24 04:40:24;;;;;;;12.75;7.97;;;;;;;21.99;74.24;94874.53;5090137;28;20189;-43
2023/07/24 04:42:51;;;;;;;8.90;7.85;;;;;;;22.04;73.95;94861.72;5089982;28;20637;-44
2023/07/24 04:45:18;;;;;;;12.32;8.95;;;;;;;22.10;74.00;94869.69;5089983;28;20726;-47
2023/07/24 04:47:45;;;;;;;18.42;8.98;;;;;;;22.10;73.80;94874.91;5089829;28;20193;-42
2023/07/24 04:50:11;;;;;;;12.55;8.80;;;;;;;22.07;73.91;94877.94;5090129;28;20198;-45
2023/07/24 04:52:39;;;;;;;18.00;8.90;;;;;;;22.15;73.67;94873.34;5089872;28;20285;-44
2023/07/24 04:55:07;;;;;;;14.73;8.77;;;;;;;22.29;73.63;94880.09;5089912;28;20189;-42
2023/07/24 04:57:34;;;;;;;11.07;8.77;;;;;;;22.37;73.21;94883.50;5089712;28;20708;-43
2023/07/24 05:00:01;;;;;;;14.57;8.95;;;;;;;22.43;72.85;94880.84;5089202;28;20699;-43
2023/07/24 05:02:27;;;;;;;21.27;10.13;;;;;;;22.53;72.48;94883.81;5089506;28;20185;-44
2023/07/24 05:04:54;;;;;;;17.63;9.20;;;;;;;22.60;72.38;94877.78;5089601;28;20194;-43
2023/07/24 05:07:21;;;;;;;15.95;9.38;;;;;;;22.72;71.83;94878.75;5089974;28;20189;-44
2023/07/24 05:09:49;;;;;;;13.35;9.73;;;;;;;22.84;71.50;94887.50;5089670;28;20631;-44
2023/07/24 05:12:16;;;;;;;12.73;9.55;;;;;;;22.96;71.09;94890.25;5089737;28;20648;-44
2023/07/24 05:14:42;;;;;;;11.93;8.82;;;;;;;23.08;71.07;94885.19;5089467;28;20908;-43
2023/07/24 05:17:09;;;;;;;18.05;9.85;;;;;;;23.38;69.91;94888.00;5089381;28;20641;-43
2023/07/24 05:19:36;;;;;;;12.52;9.73;;;;;;;23.68;69.26;94883.75;5089903;28;20522;-44
2023/07/24 05:22:03;;;;;;;12.32;9.35;;;;;;;24.13;67.35;94877.50;5089736;28;20622;-43
2023/07/24 05:24:30;;;;;;;13.18;10.10;;;;;;;24.46;65.02;94880.59;5089320;28;20197;-43
2023/07/24 05:26:58;;;;;;;16.65;9.45;;;;;;;24.93;63.74;94877.38;5089689;28;20263;-45
2023/07/24 05:29:24;;;;;;;15.45;9.88;;;;;;;25.38;62.45;94874.34;5090256;28;20233;-45
2023/07/24 05:31:51;;;;;;;11.95;9.13;;;;;;;25.80;60.79;94875.09;5089342;28;20186;-45
2023/07/24 05:34:18;;;;;;;14.60;9.65;;;;;;;26.17;59.16;94878.28;5089417;28;20661;-43
2023/07/24 05:36:45;;;;;;;14.63;9.77;;;;;;;26.38;56.76;94874.25;5089160;28;20197;-44
2023/07/24 05:39:11;;;;;;;12.48;9.52;;;;;;;26.76;55.56;94880.78;5089271;28;20217;-43
2023/07/24 05:41:38;;;;;;;15.02;11.15;;;;;;;27.21;53.68;94877.44;5089100;28;20198;-42
2023/07/24 05:44:06;;;;;;;17.38;11.05;;;;;;;27.56;51.01;94879.84;5089361;28;20593;-45
2023/07/24 05:46:33;;;;;;;14.73;10.75;;;;;;;27.77;49.80;94872.28;5089244;28;20186;-44
2023/07/24 05:49:01;;;;;;;11.68;9.75;;;;;;;28.03;49.42;94871.63;5089516;28;20194;-46
2023/07/24 05:51:28;;;;;;;13.15;10.25;;;;;;;28.43;49.23;94871.38;5089121;28;20739;-43
2023/07/24 05:53:55;;;;;;;15.05;10.85;;;;;;;28.75;48.07;94873.31;5089677;28;20197;-45
2023/07/24 05:56:21;;;;;;;15.70;10.10;;;;;;;29.11;47.46;94858.72;5089094;28;20258;-46
2023/07/24 05:58:48;;;;;;;12.70;10.45;;;;;;;29.39;47.29;94868.16;5089294;28;20283;-45
2023/07/24 06:01:16;;;;;;;13.73;9.85;;;;;;;29.61;47.00;94865.47;5088923;28;20305;-46
2023/07/24 06:03:43;;;;;;;13.52;10.80;;;;;;;29.80;46.06;94854.53;5089534;28;20190;-44
2023/07/24 06:06:10;;;;;;;17.23;10.80;;;;;;;29.89;45.68;94856.44;5089385;28;20718;-43
2023/07/24 06:08:36;;;;;;;13.68;10.02;;;;;;;30.09;44.88;94858.38;5088824;28;20201;-44
2023/07/24 06:11:03;;;;;;;15.40;10.30;;;;;;;30.30;44.43;94850.59;5089073;28;20254;-45
2023/07/24 06:13:30;;;;;;;40.10;11.73;;;;;;;30.44;43.45;94856.97;5092785;28;20680;-45
2023/07/24 06:15:57;;;;;;;17.98;10.55;;;;;;;30.55;43.25;94855.19;5092880;28;20251;-46
2023/07/24 06:18:25;;;;;;;16.17;11.05;;;;;;;30.63;43.39;94858.13;5092937;28;20689;-44
2023/07/24 06:20:53;;;;;;;15.13;9.75;;;;;;;30.59;43.92;94856.25;5093249;28;20178;-45
2023/07/24 06:23:20;;;;;;;16.50;9.93;;;;;;;30.72;44.04;94858.44;5093056;28;20268;-44
2023/07/24 06:25:47;;;;;;;13.57;10.48;;;;;;;31.02;43.84;94854.28;5092995;28;20570;-43
2023/07/24 06:28:14;;;;;;;14.50;10.98;;;;;;;31.22;43.34;94859.63;5092778;28;20254;-44
2023/07/24 06:30:41;;;;;;;12.20;10.00;;;;;;;31.42;42.99;94864.91;5092623;28;20240;-49
2023/07/24 06:33:07;;;;;;;13.75;10.65;;;;;;;31.47;41.95;94856.19;5092629;28;20182;-44
2023/07/24 06:35:36;;;;;;;13.90;11.15;;;;;;;31.48;41.27;94855.94;5092902;28;20201;-43
2023/07/24 06:38:03;;;;;;;13.85;10.48;;;;;;;31.21;41.89;94858.00;5092325;28;20704;-45
2023/07/24 06:40:29;;;;;;;14.55;10.98;;;;;;;31.02;42.35;94851.66;5092527;28;20205;-43
2023/07/24 06:42:56;;;;;;;11.68;9.48;;;;;;;30.91;43.40;94854.25;5092669;28;20194;-43
2023/07/24 06:45:23;;;;;;;16.70;9.68;;;;;;;31.01;43.52;94858.78;5092217;28;20182;-44
2023/07/24 06:47:50;;;;;;;14.85;10.55;;;;;;;30.85;43.83;94849.25;5092509;28;20190;-46
2023/07/24 06:50:17;;;;;;;16.58;10.25;;;;;;;30.69;45.11;94843.09;5092018;28;20189;-44
2023/07/24 06:52:45;;;;;;;21.58;10.43;;;;;;;30.95;44.24;94849.25;5092166;28;20194;-43
2023/07/24 06:55:12;;;;;;;13.90;10.10;;;;;;;31.28;44.03;94852.47;5092082;28;20193;-43
2023/07/24 06:57:38;;;;;;;21.98;10.05;;;;;;;31.57;43.81;94858.06;5092315;28;20569;-45
2023/07/24 07:00:08;;;;;;;12.00;9.80;;;;;;;31.66;43.41;94861.75;5092229;28;20693;-44
2023/07/24 07:02:35;;;;;;;14.75;9.63;;;;;;;31.58;43.04;94857.00;5092813;28;20190;-45
2023/07/24 07:05:02;;;;;;;12.75;9.75;;;;;;;31.40;43.71;94863.63;5092551;28;20194;-44
2023/07/24 07:07:29;;;;;;;14.85;10.30;;;;;;;31.37;43.95;94862.28;5092367;28;20197;-44
2023/07/24 07:09:57;;;;;;;17.75;9.55;;;;;;;31.75;43.62;94865.44;5092065;28;20189;-44
2023/07/24 07:12:23;;;;;;;14.93;10.40;;;;;;;31.78;43.12;94867.56;5091906;28;20192;-44
2023/07/24 07:14:50;;;;;;;16.08;9.25;;;;;;;31.59;43.36;94861.22;5091756;28;20186;-44
2023/07/24 07:17:17;;;;;;;13.30;10.32;;;;;;;31.43;43.88;94858.59;5092206;28;20186;-45
2023/07/24 07:19:44;;;;;;;15.52;9.75;;;;;;;31.51;43.53;94857.25;5093786;28;20283;-45
2023/07/24 07:22:11;;;;;;;13.50;9.35;;;;;;;31.53;44.00;94859.66;5091062;28;20327;-45
2023/07/24 07:24:38;;;;;;;15.43;10.20;;;;;;;31.42;44.10;94849.06;5092022;28;20189;-43
2023/07/24 07:27:06;;;;;;;14.13;9.80;;;;;;;31.45;44.15;94853.81;5091705;28;20177;-43
2023/07/24 07:29:33;;;;;;;16.50;10.45;;;;;;;31.59;43.54;94846.16;5091444;28;20654;-44
2023/07/24 07:32:00;;;;;;;12.38;8.35;;;;;;;31.66;44.04;94843.25;5091356;28;20197;-44
2023/07/24 07:34:27;;;;;;;13.90;9.13;;;;;;;31.84;43.73;94840.06;5091755;28;20532;-46
2023/07/24 07:36:54;;;;;;;15.35;9.73;;;;;;;32.09;43.00;94843.72;5091006;28;20572;-43
2023/07/24 07:39:20;;;;;;;15.73;9.55;;;;;;;32.30;42.57;94845.25;5091475;28;20561;-45
2023/07/24 07:41:47;;;;;;;13.68;9.18;;;;;;;32.34;42.03;94838.34;5091461;28;20269;-43
2023/07/24 07:44:15;;;;;;;16.55;10.10;;;;;;;32.23;42.56;94834.94;5091415;28;20223;-43
2023/07/24 07:46:42;;;;;;;14.18;10.48;;;;;;;32.52;42.34;94839.63;5091103;28;20192;-44
2023/07/24 07:49:09;;;;;;;13.68;9.25;;;;;;;32.74;41.73;94839.25;5091106;28;20182;-45
2023/07/24 07:51:36;;;;;;;15.88;9.98;;;;;;;32.86;40.92;94838.91;5091154;28;20185;-45
2023/07/24 07:54:04;;;;;;;11.70;8.98;;;;;;;32.82;41.47;94835.25;5090789;28;20212;-43
2023/07/24 07:56:30;;;;;;;17.15;9.60;;;;;;;32.96;40.89;94825.63;5090903;28;20611;-44
2023/07/24 07:58:57;;;;;;;13.93;10.25;;;;;;;33.31;40.28;94832.53;5090601;28;20232;-44
2023/07/24 08:01:25;;;;;;;16.15;9.90;;;;;;;33.25;40.25;94838.97;5090894;28;20700;-43
2023/07/24 08:03:52;;;;;;;18.77;9.10;;;;;;;33.31;40.35;94845.00;5090895;28;20254;-44
2023/07/24 08:06:19;;;;;;;16.27;9.82;;;;;;;33.37;39.93;94844.66;5091152;28;20596;-44
2023/07/24 08:08:45;;;;;;;15.82;10.40;;;;;;;33.49;39.60;94835.59;5090666;28;20266;-43
2023/07/24 08:11:12;;;;;;;15.52;10.60;;;;;;;33.62;39.37;94846.34;5090713;28;20202;-45
2023/07/24 08:13:39;;;;;;;17.92;10.38;;;;;;;33.72;38.91;94837.50;5090500;28;20204;-44
2023/07/24 08:16:18;;;;;;;11.50;10.02;;;;;;;33.92;38.93;94833.88;5090802;28;20661;-44
2023/07/24 08:18:46;;;;;;;13.48;9.82;;;;;;;34.09;39.10;94826.28;5090483;28;20239;-44
2023/07/24 08:21:13;;;;;;;14.02;9.63;;;;;;;34.02;38.73;94828.47;5090599;28;20225;-45
2023/07/24 08:23:40;;;;;;;12.32;9.70;;;;;;;33.10;39.20;94712.63;5090549;28;20265;-45
2023/07/24 08:26:08;;;;;;;16.55;10.13;;;;;;;33.83;39.24;94816.97;5090519;28;20280;-45
2023/07/24 08:28:35;;;;;;;13.13;9.38;;;;;;;34.02;38.89;94815.22;5090307;28;20248;-44
2023/07/24 08:31:02;;;;;;;13.43;9.15;;;;;;;34.08;38.88;94806.13;5090675;28;20268;-44
2023/07/24 08:33:29;;;;;;;17.40;10.07;;;;;;;34.19;38.55;94809.44;5091166;28;20649;-44
2023/07/24 08:36:02;;;;;;;14.68;8.55;;;;;;;34.18;38.25;94807.88;5091205;28;20200;-44
2023/07/24 08:38:29;;;;;;;13.68;10.43;;;;;;;34.24;38.46;94806.72;5090618;28;20632;-48
2023/07/24 08:41:04;;;;;;;16.58;9.82;;;;;;;34.39;37.85;94811.06;5090098;28;20687;-45
2023/07/24 08:43:31;;;;;;;17.13;9.88;;;;;;;34.27;37.93;94790.22;5090393;28;20196;-45
2023/07/24 08:45:59;;;;;;;13.43;8.82;;;;;;;34.36;37.86;94795.69;5090074;28;20193;-45
2023/07/24 08:48:27;;;;;;;14.00;9.35;;;;;;;34.20;37.76;94793.25;5090267;28;20272;-44
2023/07/24 08:50:54;;;;;;;14.35;9.00;;;;;;;34.17;37.48;94796.47;5089880;28;20189;-45
2023/07/24 08:53:23;;;;;;;14.80;10.38;;;;;;;34.18;37.50;94797.25;5090008;28;20250;-45
2023/07/24 08:55:52;;;;;;;11.93;8.80;;;;;;;33.93;37.32;94799.09;5090183;28;20189;-44
2023/07/24 08:58:18;;;;;;;13.13;10.00;;;;;;;33.88;37.30;94793.84;5090318;28;20201;-44
2023/07/24 09:00:46;;;;;;;14.88;10.25;;;;;;;33.92;37.94;94791.41;5090028;28;20185;-43
2023/07/24 09:03:13;;;;;;;16.88;9.43;;;;;;;34.04;38.07;94788.41;5089972;28;20198;-45
2023/07/24 09:05:39;;;;;;;13.90;9.90;;;;;;;34.22;37.26;94795.63;5089677;28;20194;-44
2023/07/24 09:08:06;;;;;;;18.05;9.73;;;;;;;34.32;37.15;94787.50;5090240;28;20185;-46
2023/07/24 09:10:34;;;;;;;16.75;9.88;;;;;;;34.54;37.21;94788.84;5089983;28;20197;-44
2023/07/24 09:13:03;;;;;;;13.77;10.25;;;;;;;34.59;36.12;94781.63;5089958;28;20212;-44
2023/07/24 09:15:30;;;;;;;16.15;10.88;;;;;;;34.50;36.25;94778.03;5089443;28;20212;-46
2023/07/24 09:17:57;;;;;;;19.90;10.63;;;;;;;34.55;36.37;94785.94;5089667;28;20194;-44
2023/07/24 09:20:24;;;;;;;16.02;9.77;;;;;;;34.61;36.04;94784.78;5089200;28;20217;-43
2023/07/24 09:22:51;;;;;;;17.13;11.23;;;;;;;34.34;36.09;94785.38;5089504;28;20193;-44
2023/07/24 09:25:18;;;;;;;13.25;10.82;;;;;;;34.12;36.70;94775.28;5089810;28;20189;-44
2023/07/24 09:27:46;;;;;;;19.08;10.98;;;;;;;34.16;37.12;94775.53;5089536;28;20189;-44
2023/07/24 09:30:14;;;;;;;18.02;10.32;;;;;;;34.24;37.02;94763.44;5089572;28;20589;-44
2023/07/24 09:32:41;;;;;;;16.27;10.63;;;;;;;34.36;36.15;94766.50;5089432;28;20228;-44
2023/07/24 09:35:18;;;;;;;15.13;10.85;;;;;;;34.39;36.42;94765.94;5089552;28;20197;-44
2023/07/24 09:37:46;;;;;;;15.48;10.02;;;;;;;34.51;36.10;94755.72;5089475;28;20254;-44
2023/07/24 09:40:15;;;;;;;19.05;9.57;;;;;;;34.50;35.54;94756.78;5089424;28;20719;-45
2023/07/24 09:42:42;;;;;;;16.50;9.93;;;;;;;34.53;35.37;94739.47;5089570;28;20295;-44
2023/07/24 09:45:11;;;;;;;14.00;10.30;;;;;;;34.34;34.25;94726.94;5089570;28;20242;-44
2023/07/24 09:47:40;;;;;;;24.30;11.23;;;;;;;34.24;35.05;94737.69;5093460;28;20687;-45
2023/07/24 09:50:08;;;;;;;16.30;10.18;;;;;;;34.17;36.20;94734.63;5093669;28;20564;-44
2023/07/24 09:52:41;;;;;;;15.25;10.23;;;;;;;34.10;35.84;94729.63;5093302;28;20255;-44
2023/07/24 09:55:13;;;;;;;11.52;9.90;;;;;;;33.99;35.81;94714.94;5093447;28;20688;-43
2023/07/24 09:57:40;;;;;;;16.02;9.70;;;;;;;34.16;35.91;94723.22;5093230;28;20596;-45
2023/07/24 10:00:08;;;;;;;14.88;9.95;;;;;;;34.28;36.10;94727.28;5093745;28;20267;-46
2023/07/24 10:02:37;;;;;;;15.95;9.55;;;;;;;34.09;35.13;94685.59;5093145;28;20704;-45
2023/07/24 10:05:05;;;;;;;15.10;9.55;;;;;;;34.18;35.53;94726.34;5093902;28;20189;-45
2023/07/24 10:07:32;;;;;;;14.70;9.38;;;;;;;34.01;36.63;94715.44;5093195;28;20603;-47
2023/07/24 10:09:59;;;;;;;15.57;10.27;;;;;;;33.94;37.04;94718.41;5093731;28;20190;-45
2023/07/24 10:12:27;;;;;;;18.33;10.07;;;;;;;33.98;36.17;94708.03;5092911;28;20667;-44
2023/07/24 10:14:55;;;;;;;12.93;9.07;;;;;;;34.01;35.91;94707.47;5093295;28;20189;-43
2023/07/24 10:17:36;;;;;;;14.85;9.60;;;;;;;33.90;36.19;94706.00;5092880;28;20213;-43
2023/07/24 10:20:05;;;;;;;14.68;9.52;;;;;;;33.78;36.61;94701.09;5093036;28;20213;-44
2023/07/24 10:22:32;;;;;;;17.15;8.93;;;;;;;33.91;36.82;94696.97;5093201;28;20197;-45
2023/07/24 10:24:59;;;;;;;25.15;9.57;;;;;;;33.98;36.55;94700.06;5093051;28;20319;-45
2023/07/24 10:27:28;;;;;;;13.20;8.05;;;;;;;34.03;36.41;94702.69;5092836;28;20197;-45
2023/07/24 10:30:02;;;;;;;16.70;9.00;;;;;;;34.03;36.23;94691.28;5092607;28;20230;-44
2023/07/24 10:32:29;;;;;;;13.68;8.27;;;;;;;34.03;36.68;94696.59;5092446;28;20564;-45
2023/07/24 10:35:08;;;;;;;17.73;7.82;;;;;;;34.08;35.94;94694.63;5093153;28;20202;-45
2023/07/24 10:37:36;;;;;;;15.98;7.57;;;;;;;34.04;35.93;94690.19;5092456;28;20671;-44
2023/07/24 10:40:04;;;;;;;15.38;8.98;;;;;;;34.13;36.23;94693.78;5092784;28;20252;-45
2023/07/24 10:42:33;;;;;;;13.63;7.60;;;;;;;34.19;36.07;94682.78;5092277;28;20189;-44
2023/07/24 10:45:06;;;;;;;9.55;7.50;;;;;;;34.19;36.02;94684.66;5092780;28;20186;-42
2023/07/24 10:47:33;;;;;;;19.42;7.40;;;;;;;34.22;36.53;94681.44;5092445;28;20281;-44
2023/07/24 10:50:02;;;;;;;14.07;8.82;;;;;;;34.16;36.06;94650.75;5092751;28;20189;-45
2023/07/24 10:52:30;;;;;;;11.98;7.80;;;;;;;34.41;36.45;94679.59;5092249;28;20189;-45
2023/07/24 10:54:57;;;;;;;9.57;7.15;;;;;;;34.52;36.29;94666.97;5092251;28;20212;-45
2023/07/24 10:57:26;;;;;;;16.58;7.22;;;;;;;34.74;35.24;94679.63;5092282;28;20185;-44
2023/07/24 10:59:53;;;;;;;14.10;6.57;;;;;;;34.83;34.79;94677.09;5092269;28;20279;-45
2023/07/24 11:02:21;;;;;;;10.43;6.80;;;;;;;34.80;34.58;94664.38;5092128;28;20235;-44
2023/07/24 11:04:48;;;;;;;11.68;6.65;;;;;;;34.78;34.86;94658.59;5091984;28;20277;-44
2023/07/24 11:07:16;;;;;;;12.77;6.93;;;;;;;34.89;35.40;94665.31;5092112;28;20190;-44
2023/07/24 11:09:43;;;;;;;13.68;7.03;;;;;;;34.98;34.84;94660.16;5092094;28;20630;-44
2023/07/24 11:12:12;;;;;;;15.55;7.45;;;;;;;35.06;34.08;94667.44;5092049;28;20213;-44
2023/07/24 11:14:48;;;;;;;13.05;6.97;;;;;;;34.95;34.31;94661.50;5091968;28;20197;-44
2023/07/24 11:17:14;;;;;;;14.20;7.50;;;;;;;34.99;34.41;94657.19;5092142;28;20213;-44
2023/07/24 11:19:41;;;;;;;11.68;7.03;;;;;;;35.04;34.71;94635.06;5091789;28;20279;-45
2023/07/24 11:22:08;;;;;;;11.70;7.30;;;;;;;35.17;35.07;94632.41;5091866;28;20194;-43